Time;durP1;ratioP1;P1;durP2;ratioP2;P2;SDS_P1;SDS_P2;PMS_P1;PMS_P2;Temp;Humidity;BMP_temperature;BMP_pressure;BME280_temperature;BME280_humidity;BME280_pressure;Samples;Min_cycle;Max_cycle;Signal;HPM_P1;HPM_P2
2022/01/03 00:00:42;;;;;;;1.77;0.75;;;8.30;99.90;;;;;;4620411;28;10000181;-75
2022/01/03 00:03:08;;;;;;;;;;;8.30;99.90;;;;;;4960565;28;20110;-76
2022/01/03 00:05:35;;;;;;;3.47;0.70;;;8.30;99.90;;;;;;4961143;28;19910;-76
2022/01/03 00:08:02;;;;;;;1.75;0.80;;;8.30;99.90;;;;;;4962561;28;20105;-76
2022/01/03 00:10:28;;;;;;;1.42;0.70;;;8.30;99.90;;;;;;4970667;28;20579;-76
2022/01/03 00:12:54;;;;;;;1.42;0.75;;;8.40;99.90;;;;;;4956458;28;20118;-76
2022/01/03 00:15:20;;;;;;;2.15;0.60;;;8.30;99.90;;;;;;4960986;28;20343;-76
2022/01/03 00:17:48;;;;;;;1.98;0.70;;;8.30;99.90;;;;;;4957568;28;20081;-76
2022/01/03 00:20:15;;;;;;;2.20;0.73;;;8.30;99.90;;;;;;4962421;28;20034;-76
2022/01/03 00:22:58;;;;;;;1.00;0.82;;;8.40;99.90;;;;;;4958980;28;20500;-76
2022/01/03 00:25:25;;;;;;;2.90;0.75;;;8.40;99.90;;;;;;4954328;28;20032;-76
2022/01/03 00:28:07;;;;;;;2.10;0.80;;;8.40;99.90;;;;;;4959462;28;20020;-76
2022/01/03 00:30:39;;;;;;;0.63;0.60;;;8.40;99.90;;;;;;4972374;28;20038;-76
2022/01/03 00:33:06;;;;;;;1.15;0.88;;;8.40;99.90;;;;;;4959390;28;20019;-76
2022/01/03 00:35:38;;;;;;;1.77;0.65;;;8.30;99.90;;;;;;4960833;28;20035;-76
2022/01/03 00:38:10;;;;;;;4.67;1.17;;;8.30;99.90;;;;;;4965256;28;20053;-76
2022/01/03 00:40:37;;;;;;;1.55;0.80;;;8.30;99.90;;;;;;4962689;28;20054;-76
2022/01/03 00:43:03;;;;;;;1.65;1.10;;;8.30;99.90;;;;;;4961614;28;20067;-76
2022/01/03 00:45:29;;;;;;;1.05;0.70;;;8.40;99.90;;;;;;4966839;28;20127;-76
2022/01/03 00:47:55;;;;;;;4.53;0.90;;;8.40;99.90;;;;;;4955610;28;20038;-76
2022/01/03 00:50:23;;;;;;;1.20;0.70;;;8.40;99.90;;;;;;4957688;28;20122;-75
2022/01/03 00:52:49;;;;;;;1.15;0.80;;;8.40;99.90;;;;;;4958828;28;20030;-76
2022/01/03 00:55:16;;;;;;;2.03;0.70;;;8.40;99.90;;;;;;4962912;28;20055;-75
2022/01/03 00:57:45;;;;;;;1.75;0.80;;;8.40;99.90;;;;;;4962571;28;20269;-75
2022/01/03 01:00:11;;;;;;;1.35;0.80;;;8.40;99.90;;;;;;4963565;28;20046;-75
2022/01/03 01:02:38;;;;;;;1.60;0.85;;;8.40;99.90;;;;;;4964256;28;20023;-76
2022/01/03 01:05:05;;;;;;;1.27;0.70;;;8.40;99.90;;;;;;4962151;28;20031;-75
2022/01/03 01:07:32;;;;;;;2.03;0.90;;;8.40;99.90;;;;;;4964689;28;20039;-75
2022/01/03 01:10:01;;;;;;;2.90;0.90;;;8.40;99.90;;;;;;4962431;28;20399;-76
2022/01/03 01:12:29;;;;;;;0.80;0.80;;;8.40;99.90;;;;;;4961134;28;20026;-78
2022/01/03 01:14:55;;;;;;;0.88;0.77;;;8.50;99.90;;;;;;4968308;28;20093;-77
2022/01/03 01:17:21;;;;;;;4.55;0.98;;;8.50;99.90;;;;;;4968290;28;20668;-75
2022/01/03 01:19:48;;;;;;;3.10;1.13;;;8.50;99.90;;;;;;4969130;28;20056;-75
2022/01/03 01:22:14;;;;;;;2.25;0.90;;;8.60;99.90;;;;;;4953339;28;20031;-76
2022/01/03 01:24:50;;;;;;;3.15;0.93;;;8.50;99.90;;;;;;4966802;28;20031;-75
2022/01/03 01:30:01;;;;;;;1.75;1.02;;;8.50;99.90;;;;;;4965372;28;20485;-75
2022/01/03 01:32:28;;;;;;;3.47;1.27;;;8.60;99.90;;;;;;4964913;28;20123;-78
2022/01/03 01:34:56;;;;;;;6.18;1.20;;;8.60;99.90;;;;;;4963517;28;20042;-75
2022/01/03 01:37:23;;;;;;;3.30;1.33;;;8.60;99.90;;;;;;4958952;28;20565;-76
2022/01/03 01:39:49;;;;;;;6.28;1.50;;;8.70;99.90;;;;;;4961770;28;20301;-76
2022/01/03 01:42:17;;;;;;;3.17;1.27;;;8.80;99.90;;;;;;4971308;28;20582;-78
2022/01/03 01:44:51;;;;;;;5.47;1.30;;;8.80;99.90;;;;;;4962789;28;20069;-78
2022/01/03 01:47:18;;;;;;;5.05;1.70;;;8.80;99.90;;;;;;4967744;28;20395;-78
2022/01/03 01:49:46;;;;;;;3.90;1.25;;;8.80;99.90;;;;;;4958026;28;20101;-78
2022/01/03 01:52:21;;;;;;;6.25;1.40;;;8.80;99.90;;;;;;4961806;28;20532;-78
2022/01/03 01:54:58;;;;;;;3.90;1.20;;;8.80;99.90;;;;;;4968473;28;20090;-78
2022/01/03 01:57:43;;;;;;;5.32;1.77;;;8.70;99.90;;;;;;4961068;28;20106;-78
2022/01/03 02:00:14;;;;;;;2.75;1.48;;;8.70;99.90;;;;;;4968296;28;20395;-78
2022/01/03 02:03:11;;;;;;;2.67;1.25;;;8.70;99.90;;;;;;4960134;28;20027;-78
2022/01/03 02:05:38;;;;;;;4.88;1.40;;;8.70;99.90;;;;;;4960608;28;20028;-78
2022/01/03 02:08:10;;;;;;;4.50;1.63;;;8.70;99.90;;;;;;4977452;28;20061;-78
2022/01/03 02:11:23;;;;;;;3.45;1.45;;;8.60;99.90;;;;;;4976604;28;20485;-78
2022/01/03 02:13:49;;;;;;;6.80;1.55;;;8.70;99.90;;;;;;4966350;28;20034;-78
2022/01/03 02:16:15;;;;;;;5.18;1.85;;;8.70;99.90;;;;;;4968641;28;20034;-78
2022/01/03 02:18:43;;;;;;;5.22;1.42;;;8.70;99.90;;;;;;4964312;28;20487;-78
2022/01/03 02:21:08;;;;;;;5.72;1.58;;;8.70;99.90;;;;;;4954365;28;20044;-77
2022/01/03 02:23:34;;;;;;;5.43;1.70;;;8.70;99.90;;;;;;4954164;28;20033;-77
2022/01/03 02:26:00;;;;;;;5.20;1.55;;;8.70;99.90;;;;;;4964316;28;20038;-77
2022/01/03 02:28:26;;;;;;;6.40;1.52;;;8.70;99.90;;;;;;4961014;28;20117;-77
2022/01/03 02:30:52;;;;;;;5.65;1.65;;;8.70;99.90;;;;;;4961634;28;20035;-77
2022/01/03 02:33:19;;;;;;;6.57;1.63;;;8.70;99.90;;;;;;4954097;28;20508;-77
2022/01/03 02:35:45;;;;;;;4.70;1.70;;;8.60;99.90;;;;;;4958143;28;20026;-77
2022/01/03 02:38:13;;;;;;;6.57;1.95;;;8.60;99.90;;;;;;4959594;28;20093;-78
2022/01/03 02:40:38;;;;;;;6.45;2.00;;;8.60;99.90;;;;;;4967287;28;20041;-77
2022/01/03 02:43:04;;;;;;;4.28;1.63;;;8.60;99.90;;;;;;4972891;28;20034;-77
2022/01/03 02:45:30;;;;;;;10.95;1.60;;;8.60;99.90;;;;;;4961093;28;20369;-77
2022/01/03 02:47:59;;;;;;;6.97;1.60;;;8.60;99.90;;;;;;4959316;28;20038;-78
2022/01/03 02:50:26;;;;;;;7.35;1.92;;;8.60;99.90;;;;;;4957395;28;20069;-78
2022/01/03 02:52:52;;;;;;;6.85;1.88;;;8.60;99.90;;;;;;4963043;28;20566;-77
2022/01/03 02:55:18;;;;;;;6.80;2.00;;;8.60;99.90;;;;;;4962522;28;20058;-77
2022/01/03 02:57:47;;;;;;;8.57;1.88;;;8.60;99.90;;;;;;4955886;28;20023;-78
2022/01/03 03:00:16;;;;;;;6.55;1.70;;;8.60;99.90;;;;;;4960489;28;20127;-77
2022/01/03 03:02:42;;;;;;;4.90;1.48;;;8.50;99.90;;;;;;4966138;28;20042;-77
2022/01/03 03:05:09;;;;;;;5.03;1.60;;;8.50;99.90;;;;;;4960415;28;20506;-77
2022/01/03 03:07:36;;;;;;;9.27;1.67;;;8.50;99.90;;;;;;4964160;28;20093;-77
2022/01/03 03:10:14;;;;;;;10.38;1.90;;;8.50;99.90;;;;;;4961543;28;20445;-77
2022/01/03 03:12:41;;;;;;;9.40;1.83;;;8.40;99.90;;;;;;4964882;28;20467;-77
2022/01/03 03:15:08;;;;;;;11.65;1.98;;;8.50;99.90;;;;;;4968348;28;20052;-77
2022/01/03 03:17:35;;;;;;;12.38;1.95;;;;;;;;;;4967591;28;20030;-77
2022/01/03 03:20:07;;;;;;;11.13;2.42;;;;;;;;;;4954328;28;20031;-77
2022/01/03 03:22:33;;;;;;;11.98;1.85;;;8.50;99.90;;;;;;4962115;28;20034;-77
2022/01/03 03:25:14;;;;;;;8.93;2.00;;;8.50;99.90;;;;;;4962048;28;20525;-77
2022/01/03 03:27:43;;;;;;;8.70;1.80;;;8.40;99.90;;;;;;4964598;28;20483;-77
2022/01/03 03:30:16;;;;;;;11.35;2.05;;;8.40;99.90;;;;;;4967129;28;20039;-77
2022/01/03 03:32:43;;;;;;;9.57;1.73;;;8.40;99.90;;;;;;4962408;28;20495;-77
2022/01/03 03:35:09;;;;;;;14.30;2.00;;;8.40;99.90;;;;;;4954027;28;20042;-77
2022/01/03 03:37:35;;;;;;;11.32;2.50;;;8.30;99.90;;;;;;4962483;28;20027;-77
2022/01/03 03:40:01;;;;;;;12.50;2.00;;;8.20;99.90;;;;;;4966274;28;20578;-77
2022/01/03 03:42:26;;;;;;;11.73;2.13;;;8.20;99.90;;;;;;4964563;28;20031;-77
2022/01/03 03:44:52;;;;;;;11.15;2.00;;;8.20;99.90;;;;;;4964294;28;20379;-77
2022/01/03 03:47:17;;;;;;;9.10;2.00;;;8.20;99.90;;;;;;4961457;28;20035;-77
2022/01/03 03:49:43;;;;;;;14.10;1.85;;;8.20;99.90;;;;;;4960892;28;20123;-78
2022/01/03 03:52:09;;;;;;;11.90;2.13;;;8.20;99.90;;;;;;4966474;28;20387;-78
2022/01/03 03:54:35;;;;;;;6.88;2.08;;;8.20;99.90;;;;;;4962214;28;20034;-78
2022/01/03 03:57:01;;;;;;;11.35;2.22;;;8.10;99.90;;;;;;4963771;28;20030;-78
2022/01/03 03:59:27;;;;;;;8.77;2.03;;;8.30;99.90;;;;;;4966633;28;20038;-78
2022/01/03 04:01:54;;;;;;;9.85;2.20;;;8.20;99.90;;;;;;4966989;28;20106;-78
2022/01/03 04:04:20;;;;;;;8.88;2.60;;;8.10;99.90;;;;;;4962970;28;20097;-77
2022/01/03 04:06:46;;;;;;;11.35;2.13;;;8.10;99.90;;;;;;4961462;28;20459;-78
2022/01/03 04:09:12;;;;;;;7.88;1.92;;;8.00;99.90;;;;;;4956660;28;20423;-78
2022/01/03 04:11:38;;;;;;;13.43;2.25;;;8.00;99.90;;;;;;4966160;28;20043;-77
2022/01/03 04:14:04;;;;;;;14.88;2.33;;;8.00;99.90;;;;;;4959417;28;20479;-78
2022/01/03 04:16:30;;;;;;;9.82;2.58;;;7.90;99.90;;;;;;4965520;28;20022;-78
2022/01/03 04:18:56;;;;;;;9.15;2.30;;;8.00;99.90;;;;;;4962150;28;20027;-77
2022/01/03 04:21:22;;;;;;;10.50;2.30;;;8.10;99.90;;;;;;4962446;28;20078;-77
2022/01/03 04:23:48;;;;;;;9.68;1.95;;;8.10;99.90;;;;;;4961914;28;20074;-77
2022/01/03 04:26:14;;;;;;;12.90;2.22;;;8.00;99.90;;;;;;4961467;28;20026;-77
2022/01/03 04:28:39;;;;;;;10.85;2.30;;;8.00;99.90;;;;;;4963434;28;20035;-77
2022/01/03 04:31:05;;;;;;;9.90;2.70;;;8.00;99.90;;;;;;4956653;28;20034;-77
2022/01/03 04:33:31;;;;;;;10.55;2.40;;;8.00;99.90;;;;;;4960495;28;20614;-77
2022/01/03 04:35:57;;;;;;;9.73;2.30;;;7.90;99.90;;;;;;4957969;28;20391;-77
2022/01/03 04:38:23;;;;;;;12.50;2.63;;;7.90;99.90;;;;;;4959768;28;20023;-77
2022/01/03 04:40:49;;;;;;;8.98;2.40;;;7.80;99.90;;;;;;4960514;28;20726;-77
2022/01/03 04:43:14;;;;;;;8.82;2.42;;;7.80;99.90;;;;;;4961685;28;20027;-77
2022/01/03 04:45:40;;;;;;;9.00;2.38;;;7.80;99.90;;;;;;4960646;28;20451;-77
2022/01/03 04:48:06;;;;;;;8.98;2.30;;;7.80;99.90;;;;;;4964259;28;20047;-77
2022/01/03 04:50:31;;;;;;;9.55;2.22;;;7.80;99.90;;;;;;4965942;28;20030;-77
2022/01/03 04:52:57;;;;;;;12.80;3.03;;;7.80;99.90;;;;;;4966288;28;20035;-77
2022/01/03 04:55:23;;;;;;;14.27;2.85;;;7.80;99.90;;;;;;4960609;28;20034;-77
2022/01/03 04:57:50;;;;;;;11.68;2.40;;;7.70;99.90;;;;;;4964952;28;20602;-77
2022/01/03 05:00:17;;;;;;;10.68;2.65;;;7.60;99.90;;;;;;4969313;28;20030;-77
2022/01/03 05:02:43;;;;;;;14.25;2.75;;;7.60;99.90;;;;;;4970733;28;20065;-77
2022/01/03 05:05:08;;;;;;;11.48;2.90;;;7.50;99.90;;;;;;4961134;28;20450;-77
2022/01/03 05:07:34;;;;;;;7.10;2.53;;;7.50;99.90;;;;;;4968501;28;20062;-77
2022/01/03 05:10:00;;;;;;;10.45;2.53;;;7.40;99.90;;;;;;4962278;28;20035;-77
2022/01/03 05:12:26;;;;;;;14.45;3.17;;;7.30;99.90;;;;;;4967952;28;20093;-77
2022/01/03 05:14:51;;;;;;;17.55;3.85;;;7.30;99.90;;;;;;4967816;28;20471;-78
2022/01/03 05:17:17;;;;;;;12.40;3.17;;;7.30;99.90;;;;;;4967439;28;20074;-76
2022/01/03 05:19:42;;;;;;;15.80;3.58;;;7.30;99.90;;;;;;4967371;28;20031;-77
2022/01/03 05:22:08;;;;;;;16.00;2.85;;;7.30;99.90;;;;;;4964322;28;20031;-77
2022/01/03 05:24:34;;;;;;;8.73;2.63;;;7.20;99.90;;;;;;4967092;28;20035;-77
2022/01/03 05:27:01;;;;;;;15.23;4.18;;;7.30;99.90;;;;;;4966953;28;20030;-77
2022/01/03 05:29:28;;;;;;;13.85;3.78;;;7.30;99.90;;;;;;4969530;28;20034;-77
2022/01/03 05:31:54;;;;;;;13.13;2.95;;;7.30;99.90;;;;;;4968194;28;20101;-77
2022/01/03 05:34:20;;;;;;;9.95;2.42;;;7.30;99.90;;;;;;4974540;28;20019;-77
2022/01/03 05:36:45;;;;;;;14.25;3.00;;;7.30;99.90;;;;;;4955210;28;20039;-77
2022/01/03 05:39:11;;;;;;;17.73;2.40;;;7.30;99.90;;;;;;4966212;28;20027;-77
2022/01/03 05:41:37;;;;;;;11.57;2.53;;;7.30;99.90;;;;;;4966074;28;20071;-76
2022/01/03 05:44:03;;;;;;;13.10;3.20;;;7.30;99.90;;;;;;4967099;28;20074;-76
2022/01/03 05:46:29;;;;;;;10.27;2.63;;;7.30;99.90;;;;;;4964138;28;20066;-77
2022/01/03 05:48:55;;;;;;;11.45;2.55;;;7.40;99.90;;;;;;4966428;28;20117;-77
2022/01/03 05:51:20;;;;;;;10.43;3.00;;;7.40;99.90;;;;;;4959870;28;20122;-77
2022/01/03 05:53:46;;;;;;;14.77;3.10;;;7.40;99.90;;;;;;4961643;28;20048;-76
2022/01/03 05:56:12;;;;;;;16.95;2.70;;;7.30;99.90;;;;;;4968378;28;20101;-77
2022/01/03 05:58:37;;;;;;;9.38;1.95;;;7.20;99.90;;;;;;4969421;28;20027;-76
2022/01/03 06:01:03;;;;;;;11.20;2.45;;;7.20;99.90;;;;;;4960707;28;20042;-77
2022/01/03 06:03:34;;;;;;;11.43;2.63;;;7.20;99.90;;;;;;4966668;28;20058;-76
2022/01/03 06:08:26;;;;;;;10.70;2.78;;;7.10;99.90;;;;;;4966496;28;20055;-77
2022/01/03 06:10:51;;;;;;;11.65;2.55;;;7.10;99.90;;;;;;4966774;28;20061;-76
2022/01/03 06:13:17;;;;;;;11.52;3.20;;;7.00;99.90;;;;;;4959336;28;20023;-76
2022/01/03 06:15:43;;;;;;;10.27;2.70;;;7.00;99.90;;;;;;4966816;28;20019;-76
2022/01/03 06:18:12;;;;;;;12.50;2.70;;;6.90;99.90;;;;;;4964782;28;20027;-76
2022/01/03 06:20:39;;;;;;;15.40;2.90;;;6.90;99.90;;;;;;4961844;28;20133;-76
2022/01/03 06:23:06;;;;;;;13.05;2.58;;;6.80;99.90;;;;;;4967177;28;20031;-76
2022/01/03 06:25:32;;;;;;;15.57;2.92;;;6.80;99.90;;;;;;4967562;28;20399;-76
2022/01/03 06:27:58;;;;;;;12.75;2.97;;;6.80;99.90;;;;;;4971418;28;20049;-77
2022/01/03 06:30:23;;;;;;;12.05;2.90;;;6.90;99.90;;;;;;4967969;28;20471;-77
2022/01/03 06:32:49;;;;;;;18.05;2.83;;;6.90;99.90;;;;;;4960330;28;20037;-76
2022/01/03 06:35:14;;;;;;;13.23;2.65;;;6.90;99.90;;;;;;4966538;28;20050;-76
2022/01/03 06:37:40;;;;;;;12.57;2.50;;;6.90;99.90;;;;;;4951489;28;20318;-77
2022/01/03 06:40:07;;;;;;;15.30;3.10;;;6.90;99.90;;;;;;4958104;28;20429;-77
2022/01/03 06:42:33;;;;;;;13.30;3.50;;;7.00;99.90;;;;;;4968171;28;20041;-77
2022/01/03 06:44:59;;;;;;;8.63;2.25;;;6.90;99.90;;;;;;4957604;28;20129;-77
2022/01/03 06:47:25;;;;;;;13.20;2.65;;;6.90;99.90;;;;;;4962539;28;20645;-77
2022/01/03 06:49:50;;;;;;;12.98;2.80;;;6.90;99.90;;;;;;4963773;28;20386;-77
2022/01/03 06:52:16;;;;;;;16.52;2.83;;;6.90;99.90;;;;;;4959326;28;20530;-77
2022/01/03 06:54:42;;;;;;;14.10;2.80;;;6.90;99.90;;;;;;4959566;28;20026;-77
2022/01/03 06:57:08;;;;;;;14.43;2.88;;;6.80;99.90;;;;;;4956704;28;20031;-77
2022/01/03 06:59:34;;;;;;;11.77;2.65;;;6.80;99.90;;;;;;4273354;28;10000845;-74
2022/01/03 07:02:00;;;;;;;9.95;2.30;;;6.80;99.90;;;;;;4955174;28;20237;-74
2022/01/03 07:04:26;;;;;;;11.90;2.58;;;6.90;99.90;;;;;;4948273;28;20130;-74
2022/01/03 07:06:52;;;;;;;17.67;3.90;;;6.90;99.90;;;;;;4946586;28;20070;-74
2022/01/03 07:09:18;;;;;;;13.60;4.00;;;6.90;99.90;;;;;;4948280;28;20145;-73
2022/01/03 07:11:43;;;;;;;15.43;3.55;;;6.90;99.90;;;;;;4948862;28;20404;-74
2022/01/03 07:19:37;;;;;;;14.20;4.25;;;6.80;99.90;;;;;;4945974;28;20598;-75
2022/01/03 07:22:05;;;;;;;18.35;3.10;;;6.80;99.90;;;;;;4950874;28;20728;-75
2022/01/03 07:24:37;;;;;;;14.57;3.03;;;6.80;99.90;;;;;;4946165;28;20127;-75
2022/01/03 07:27:05;;;;;;;20.60;3.50;;;6.90;99.90;;;;;;4949019;28;20090;-75
2022/01/03 07:29:30;;;;;;;13.77;3.30;;;6.90;99.90;;;;;;4948758;28;20066;-75
2022/01/03 07:31:57;;;;;;;20.38;5.43;;;6.80;99.90;;;;;;4961546;28;20471;-75
2022/01/03 07:34:23;;;;;;;14.88;3.95;;;6.80;99.90;;;;;;4963717;28;20062;-75
2022/01/03 07:36:48;;;;;;;12.57;3.08;;;6.90;99.90;;;;;;4959703;28;20460;-73
2022/01/03 07:39:14;;;;;;;12.35;3.60;;;7.00;99.90;;;;;;4960444;28;20031;-75
2022/01/03 07:41:40;;;;;;;15.60;5.53;;;6.90;99.90;;;;;;4959466;28;20031;-76
2022/01/03 07:44:05;;;;;;;12.65;4.32;;;7.00;99.90;;;;;;4959850;28;20049;-76
2022/01/03 07:46:31;;;;;;;11.13;3.83;;;7.00;99.90;;;;;;4956079;28;20487;-75
2022/01/03 07:48:57;;;;;;;16.35;3.88;;;7.00;99.90;;;;;;4956172;28;20030;-75
2022/01/03 07:51:23;;;;;;;13.70;4.40;;;7.00;99.90;;;;;;4957008;28;20086;-74
2022/01/03 07:53:48;;;;;;;15.70;3.47;;;7.00;99.90;;;;;;4958786;28;20023;-75
2022/01/03 07:56:14;;;;;;;13.07;2.88;;;6.90;99.90;;;;;;4959056;28;20030;-74
2022/01/03 07:58:40;;;;;;;11.82;3.13;;;6.90;99.90;;;;;;4956275;28;20031;-75
2022/01/03 08:01:06;;;;;;;13.32;2.85;;;6.90;99.90;;;;;;4963004;28;20525;-74
2022/01/03 08:03:32;;;;;;;14.63;2.75;;;7.00;99.90;;;;;;4953894;28;20035;-74
2022/01/03 08:05:58;;;;;;;13.55;2.75;;;7.00;99.90;;;;;;4962323;28;20399;-74
2022/01/03 08:08:23;;;;;;;17.70;3.10;;;7.00;99.90;;;;;;4957413;28;20050;-74
2022/01/03 08:10:49;;;;;;;10.45;2.50;;;7.00;99.90;;;;;;4958472;28;20089;-75
2022/01/03 08:13:15;;;;;;;16.08;2.97;;;7.00;99.90;;;;;;4959696;28;20077;-75
2022/01/03 08:15:41;;;;;;;18.35;2.97;;;7.00;99.90;;;;;;4957091;28;20023;-76
2022/01/03 08:18:07;;;;;;;13.35;2.80;;;7.00;99.90;;;;;;4961078;28;20022;-74
2022/01/03 08:20:33;;;;;;;9.43;2.25;;;7.00;99.90;;;;;;4959859;28;20022;-74
2022/01/03 08:23:00;;;;;;;13.40;2.80;;;7.10;99.90;;;;;;4967073;28;20058;-74
2022/01/03 08:25:25;;;;;;;13.13;2.60;;;7.00;99.90;;;;;;4964351;28;20042;-74
2022/01/03 08:27:52;;;;;;;15.90;2.92;;;7.10;99.90;;;;;;4972064;28;20019;-74
2022/01/03 08:30:17;;;;;;;24.38;8.88;;;7.20;99.90;;;;;;4969737;28;20224;-74
2022/01/03 08:32:43;;;;;;;24.13;8.60;;;7.20;99.90;;;;;;4964979;28;20149;-74
2022/01/03 08:35:10;;;;;;;43.45;11.25;;;7.20;99.90;;;;;;4962463;28;20027;-75
2022/01/03 08:37:36;;;;;;;40.30;11.13;;;7.30;99.90;;;;;;4974428;28;20378;-75
2022/01/03 08:40:04;;;;;;;36.60;12.25;;;7.30;99.90;;;;;;4965959;28;20023;-75
2022/01/03 08:42:33;;;;;;;24.45;7.20;;;7.30;99.90;;;;;;4966981;28;20077;-75
2022/01/03 08:44:59;;;;;;;29.27;8.07;;;7.40;99.90;;;;;;4956800;28;20702;-74
2022/01/03 08:47:25;;;;;;;45.63;14.50;;;7.50;99.90;;;;;;4959229;28;20491;-74
2022/01/03 08:49:50;;;;;;;58.92;18.80;;;7.60;99.90;;;;;;4961580;28;20038;-74
2022/01/03 08:52:16;;;;;;;17.17;2.97;;;7.70;99.90;;;;;;4969207;28;20058;-75
2022/01/03 08:54:42;;;;;;;16.48;2.78;;;7.80;99.90;;;;;;4965639;28;20415;-74
2022/01/03 08:57:07;;;;;;;29.80;10.07;;;7.90;99.90;;;;;;4978140;28;20029;-74
2022/01/03 08:59:34;;;;;;;36.63;13.50;;;;;;;;;;4962712;28;20102;-74
2022/01/03 09:01:59;;;;;;;33.38;13.30;;;8.10;99.90;;;;;;4967425;28;20086;-74
2022/01/03 09:04:25;;;;;;;17.33;5.70;;;8.10;99.90;;;;;;4961710;28;20027;-74
2022/01/03 09:06:52;;;;;;;11.70;1.75;;;8.20;99.90;;;;;;4968429;28;20110;-74
2022/01/03 09:09:18;;;;;;;10.27;2.10;;;8.20;99.90;;;;;;4967982;28;20083;-75
2022/01/03 09:11:43;;;;;;;12.88;3.88;;;8.30;99.90;;;;;;4968975;28;20506;-74
2022/01/03 09:14:09;;;;;;;13.90;3.03;;;8.30;99.90;;;;;;4963176;28;20020;-75
2022/01/03 09:16:35;;;;;;;12.30;2.20;;;8.40;99.90;;;;;;4969884;28;20049;-74
2022/01/03 09:19:00;;;;;;;13.32;2.58;;;8.40;99.90;;;;;;4970901;28;20033;-74
2022/01/03 09:21:27;;;;;;;9.85;3.08;;;8.40;99.90;;;;;;4963834;28;20039;-74
2022/01/03 09:24:05;;;;;;;13.10;3.20;;;8.30;99.90;;;;;;4965927;28;20031;-73
2022/01/03 09:29:19;;;;;;;9.98;1.77;;;8.30;99.90;;;;;;4958278;28;20038;-73
2022/01/03 09:31:44;;;;;;;13.43;2.08;;;8.30;99.90;;;;;;4965523;28;20042;-74
2022/01/03 09:34:10;;;;;;;8.88;1.73;;;8.30;99.90;;;;;;4961232;28;20027;-75
2022/01/03 09:36:36;;;;;;;13.95;3.15;;;8.30;99.90;;;;;;4962831;28;20027;-74
2022/01/03 09:39:04;;;;;;;10.77;1.90;;;8.30;99.90;;;;;;4969071;28;20035;-74
2022/01/03 09:41:32;;;;;;;14.02;4.85;;;8.30;99.90;;;;;;4965174;28;20027;-74
2022/01/03 09:44:08;;;;;;;15.35;5.93;;;8.30;99.90;;;;;;4966943;28;20034;-74
2022/01/03 09:46:34;;;;;;;12.07;2.65;;;8.30;99.90;;;;;;4953665;28;20576;-74
2022/01/03 09:48:59;;;;;;;13.77;3.03;;;8.30;99.90;;;;;;4968587;28;20038;-73
2022/01/03 09:51:28;;;;;;;10.43;2.28;;;8.30;99.90;;;;;;4955656;28;20027;-73
2022/01/03 09:53:59;;;;;;;9.95;2.35;;;8.30;99.90;;;;;;4970994;28;20023;-73
2022/01/03 09:56:26;;;;;;;10.95;1.73;;;8.30;99.90;;;;;;4965813;28;20031;-75
2022/01/03 09:58:52;;;;;;;11.40;1.73;;;8.40;99.90;;;;;;4963545;28;20023;-74
2022/01/03 10:01:18;;;;;;;10.32;1.92;;;8.40;99.90;;;;;;4955878;28;20038;-73
2022/01/03 10:03:47;;;;;;;10.45;1.55;;;8.50;99.90;;;;;;4960049;28;20027;-73
2022/01/03 10:06:20;;;;;;;16.55;2.00;;;8.50;99.90;;;;;;4967051;28;20054;-73
2022/01/03 10:08:47;;;;;;;10.73;1.65;;;8.60;99.90;;;;;;4964232;28;20090;-75
2022/01/03 10:11:13;;;;;;;7.60;1.50;;;;;;;;;;4965340;28;20031;-75
2022/01/03 10:13:40;;;;;;;12.02;2.30;;;8.60;99.90;;;;;;4962386;28;20479;-75
2022/01/03 10:16:07;;;;;;;9.35;2.22;;;8.60;99.90;;;;;;4959916;28;20030;-74
2022/01/03 10:18:33;;;;;;;11.85;2.20;;;8.70;99.90;;;;;;4972796;28;20065;-73
2022/01/03 10:21:04;;;;;;;7.40;1.85;;;8.70;99.90;;;;;;4971770;28;20035;-74
2022/01/03 10:23:31;;;;;;;12.30;2.22;;;8.70;99.90;;;;;;4961829;28;20049;-74
2022/01/03 10:26:18;;;;;;;11.38;1.83;;;8.70;99.90;;;;;;4967335;28;20057;-75
2022/01/03 10:28:44;;;;;;;13.32;1.73;;;8.70;99.90;;;;;;4959089;28;20117;-75
2022/01/03 10:31:15;;;;;;;13.02;1.98;;;8.70;99.90;;;;;;4611115;28;10000671;-76
2022/01/03 10:33:40;;;;;;;9.95;1.98;;;8.80;99.90;;;;;;4961892;28;20031;-75
2022/01/03 10:36:11;;;;;;;11.05;2.03;;;8.80;99.90;;;;;;4957756;28;20023;-75
2022/01/03 10:38:43;;;;;;;8.35;1.52;;;8.80;99.90;;;;;;4969707;28;20035;-75
2022/01/03 10:41:17;;;;;;;12.63;1.80;;;8.90;99.90;;;;;;4962938;28;20038;-75
2022/01/03 10:43:46;;;;;;;9.20;1.50;;;8.90;99.90;;;;;;4954076;28;20019;-74
2022/01/03 10:46:30;;;;;;;8.57;1.50;;;8.90;99.90;;;;;;4970300;28;20387;-75
2022/01/03 10:49:15;;;;;;;5.65;1.00;;;8.90;99.90;;;;;;4980907;28;20073;-76
2022/01/03 10:51:42;;;;;;;4.80;1.00;;;8.90;99.90;;;;;;4959931;28;20285;-75
2022/01/03 10:54:10;;;;;;;7.72;1.52;;;8.90;99.90;;;;;;4962624;28;20068;-76
2022/01/03 10:56:40;;;;;;;5.80;1.65;;;8.90;99.90;;;;;;4962252;28;20480;-74
2022/01/03 10:59:14;;;;;;;4.95;1.30;;;8.90;99.90;;;;;;4960132;28;20110;-75
2022/01/03 11:01:40;;;;;;;5.53;1.83;;;8.90;99.90;;;;;;4955291;28;20032;-76
2022/01/03 11:04:05;;;;;;;8.35;1.63;;;8.90;99.90;;;;;;4965576;28;20101;-74
2022/01/03 11:11:51;;;;;;;11.02;1.70;;;9.00;99.90;;;;;;4952737;28;20498;-74
2022/01/03 11:14:36;;;;;;;6.80;1.63;;;9.00;99.90;;;;;;4965000;28;20047;-75
2022/01/03 11:17:22;;;;;;;7.53;1.60;;;9.00;99.90;;;;;;4967680;28;20043;-77
2022/01/03 11:19:47;;;;;;;8.90;1.58;;;9.00;99.90;;;;;;4958157;28;20491;-76
2022/01/03 11:22:47;;;;;;;11.05;1.50;;;8.90;99.90;;;;;;4963415;28;20021;-75
2022/01/03 11:25:12;;;;;;;6.30;2.00;;;9.00;99.90;;;;;;4962301;28;20083;-75
2022/01/03 11:27:40;;;;;;;8.68;1.33;;;8.90;99.90;;;;;;4968295;28;20427;-75
2022/01/03 11:30:11;;;;;;;6.57;1.40;;;8.90;99.90;;;;;;4962626;28;20042;-75
2022/01/03 11:32:40;;;;;;;10.52;2.08;;;8.90;99.90;;;;;;4963836;28;20038;-76
2022/01/03 11:35:07;;;;;;;11.18;2.28;;;9.00;99.90;;;;;;4959526;28;20223;-75
2022/01/03 11:37:38;;;;;;;8.65;1.52;;;9.00;99.90;;;;;;4967398;28;20035;-74
2022/01/03 11:40:05;;;;;;;11.23;1.85;;;9.00;99.90;;;;;;4949644;28;20114;-76
2022/01/03 11:42:32;;;;;;;5.78;2.20;;;9.10;99.90;;;;;;4958853;28;20030;-77
2022/01/03 11:44:59;;;;;;;10.50;1.52;;;9.20;99.90;;;;;;4960696;28;20748;-76
2022/01/03 11:47:27;;;;;;;5.18;1.20;;;9.20;99.90;;;;;;4960356;28;20106;-76
2022/01/03 11:49:53;;;;;;;10.95;1.58;;;9.20;99.90;;;;;;4960114;28;20122;-76
2022/01/03 11:52:19;;;;;;;5.75;1.60;;;9.30;99.90;;;;;;4967805;28;20149;-77
2022/01/03 11:54:45;;;;;;;10.73;1.60;;;9.30;99.90;;;;;;4965155;28;20057;-77
2022/01/03 11:57:26;;;;;;;9.45;1.58;;;9.30;99.90;;;;;;4964204;28;20498;-77
2022/01/03 12:05:56;;;;;;;12.40;2.40;;;9.60;99.90;;;;;;4957241;28;20046;-76
2022/01/03 12:08:30;;;;;;;11.50;1.70;;;9.60;99.90;;;;;;4957797;28;20054;-77
2022/01/03 12:11:00;;;;;;;14.75;2.20;;;9.60;99.90;;;;;;4956945;28;20062;-76
2022/01/03 12:13:45;;;;;;;11.55;1.95;;;9.70;99.90;;;;;;4958912;28;20031;-76
2022/01/03 12:16:12;;;;;;;8.15;1.85;;;9.70;99.90;;;;;;4966672;28;20031;-76
2022/01/03 12:18:38;;;;;;;11.13;2.20;;;9.70;99.90;;;;;;4962541;28;20038;-76
2022/01/03 12:21:04;;;;;;;7.97;1.75;;;9.70;99.90;;;;;;4959490;28;20039;-77
2022/01/03 12:23:42;;;;;;;14.45;2.30;;;9.70;99.90;;;;;;4963469;28;20209;-76
2022/01/03 12:26:19;;;;;;;12.50;3.47;;;9.60;99.90;;;;;;4960877;28;20139;-74
2022/01/03 12:29:02;;;;;;;15.98;3.13;;;9.70;99.90;;;;;;4960719;28;20031;-76
2022/01/03 12:32:08;;;;;;;14.00;2.80;;;9.60;99.90;;;;;;4962462;28;20059;-77
2022/01/03 12:34:34;;;;;;;10.30;2.75;;;9.70;99.90;;;;;;4961969;28;20042;-78
2022/01/03 12:37:16;;;;;;;11.57;2.50;;;9.70;99.90;;;;;;4952183;28;20023;-77
2022/01/03 12:40:03;;;;;;;11.00;2.40;;;9.70;99.90;;;;;;4954825;28;20162;-77
2022/01/03 12:42:53;;;;;;;8.15;2.17;;;9.70;99.90;;;;;;4965567;28;20279;-77
2022/01/03 12:45:34;;;;;;;16.90;3.55;;;9.60;99.90;;;;;;4959011;28;20027;-77
2022/01/03 12:48:11;;;;;;;13.23;2.55;;;9.70;99.90;;;;;;4953388;28;20101;-76
2022/01/03 12:50:51;;;;;;;8.25;3.13;;;9.60;99.90;;;;;;4955503;28;20034;-76
2022/01/03 12:53:32;;;;;;;11.02;2.67;;;9.60;99.90;;;;;;4961624;28;20042;-76
2022/01/03 12:56:00;;;;;;;11.38;2.88;;;9.60;99.90;;;;;;4965085;28;20035;-77
2022/01/03 12:58:26;;;;;;;11.15;2.60;;;9.60;99.90;;;;;;4963095;28;20040;-75
2022/01/03 13:00:53;;;;;;;8.88;1.85;;;9.60;99.90;;;;;;4956823;28;20027;-74
2022/01/03 13:03:26;;;;;;;13.00;2.50;;;9.60;99.90;;;;;;4959257;28;20096;-75
2022/01/03 13:06:17;;;;;;;11.80;2.10;;;9.70;99.90;;;;;;4961944;28;20051;-75
2022/01/03 13:08:51;;;;;;;10.00;1.65;;;9.60;99.90;;;;;;4957157;28;20514;-75
2022/01/03 13:11:31;;;;;;;9.95;2.22;;;9.60;99.90;;;;;;4967280;28;20038;-75
2022/01/03 13:14:02;;;;;;;6.78;1.58;;;9.60;99.90;;;;;;4957074;28;20023;-75
2022/01/03 13:16:38;;;;;;;11.23;2.17;;;9.60;99.90;;;;;;4960110;28;20058;-75
2022/01/03 13:19:22;;;;;;;6.75;1.58;;;9.60;99.90;;;;;;4958114;28;20143;-75
2022/01/03 13:22:02;;;;;;;8.38;1.67;;;9.60;99.90;;;;;;4961079;28;20035;-75
2022/01/03 13:24:44;;;;;;;9.70;2.00;;;9.60;99.90;;;;;;4957656;28;20038;-75